Time;durP1;ratioP1;P1;durP2;ratioP2;P2;SDS_P1;SDS_P2;PMS_P1;PMS_P2;Temp;Humidity;BMP_temperature;BMP_pressure;BME280_temperature;BME280_humidity;BME280_pressure;Samples;Min_cycle;Max_cycle;Signal;HPM_P1;HPM_P2
2023/03/10 00:00:38;;;;;;;17.63;7.00;;;;;;;-0.21;100.00;99072.91;4972290;28;20139;-75
2023/03/10 00:03:04;;;;;;;15.25;6.82;;;;;;;-0.19;100.00;99074.56;4991307;28;20042;-75
2023/03/10 00:05:30;;;;;;;16.92;7.45;;;;;;;-0.19;100.00;99066.75;4976548;28;20781;-75
2023/03/10 00:07:55;;;;;;;15.15;6.30;;;;;;;-0.20;100.00;99062.47;4986718;28;20042;-75
2023/03/10 00:10:21;;;;;;;13.77;6.00;;;;;;;-0.21;100.00;99052.94;4987539;28;20973;-75
2023/03/10 00:12:47;;;;;;;15.07;6.75;;;;;;;-0.21;100.00;99052.94;4953394;28;20080;-75
2023/03/10 00:15:13;;;;;;;14.48;6.50;;;;;;;-0.19;100.00;99035.53;4954693;28;20045;-75
2023/03/10 00:17:39;;;;;;;13.27;6.07;;;;;;;-0.18;100.00;99033.78;4950868;28;20050;-75
2023/03/10 00:20:10;;;;;;;13.05;5.97;;;;;;;-0.16;100.00;99027.63;4987852;28;20541;-75
2023/03/10 00:22:37;;;;;;;13.13;6.18;;;;;;;-0.16;100.00;99034.59;4986365;28;20050;-75
2023/03/10 00:25:05;;;;;;;12.35;5.43;;;;;;;-0.16;100.00;99019.00;4978002;28;20393;-76
2023/03/10 00:27:30;;;;;;;12.10;5.30;;;;;;;-0.16;100.00;99022.44;4991437;28;20101;-74
2023/03/10 00:29:56;;;;;;;16.00;6.95;;;;;;;-0.15;100.00;99016.31;4978001;28;20041;-75
2023/03/10 00:32:22;;;;;;;12.82;5.47;;;;;;;-0.14;100.00;99030.19;4956470;28;20058;-75
2023/03/10 00:34:47;;;;;;;15.27;6.45;;;;;;;-0.14;100.00;99014.59;4986314;28;20060;-75
2023/03/10 00:37:13;;;;;;;11.45;5.82;;;;;;;-0.13;100.00;99011.09;4979232;28;21738;-75
2023/03/10 00:39:38;;;;;;;13.40;5.97;;;;;;;-0.14;100.00;99006.78;4958709;28;20139;-75
2023/03/10 00:42:04;;;;;;;13.32;6.15;;;;;;;-0.11;100.00;99005.84;4989639;28;20060;-75
2023/03/10 00:44:30;;;;;;;10.45;5.80;;;;;;;-0.12;100.00;99004.97;4956981;28;20057;-75
2023/03/10 00:46:55;;;;;;;12.98;6.13;;;;;;;-0.13;100.00;99000.69;4976995;28;20042;-75
2023/03/10 00:49:21;;;;;;;13.15;5.40;;;;;;;-0.10;100.00;98994.53;4975141;28;20054;-74
2023/03/10 00:51:46;;;;;;;12.70;5.78;;;;;;;-0.07;100.00;98997.88;4973640;28;20057;-75
2023/03/10 00:54:12;;;;;;;13.70;6.38;;;;;;;-0.08;100.00;99000.53;4993682;28;20045;-75
2023/03/10 00:56:38;;;;;;;14.23;7.30;;;;;;;-0.07;100.00;98997.88;4994934;28;20050;-75
2023/03/10 00:59:03;;;;;;;14.15;6.47;;;;;;;-0.07;100.00;98986.63;4977334;28;20477;-75
2023/03/10 01:01:38;;;;;;;10.43;5.30;;;;;;;-0.05;100.00;98990.03;4990549;28;20042;-75
2023/03/10 01:04:10;;;;;;;9.77;4.95;;;;;;;-0.06;100.00;98985.75;4943489;28;20049;-75
2023/03/10 01:06:36;;;;;;;13.50;6.33;;;;;;;-0.05;100.00;98979.63;4992594;28;20034;-75
2023/03/10 01:09:04;;;;;;;13.48;6.85;;;;;;;-0.04;100.00;98986.53;4989190;28;20056;-75
2023/03/10 01:11:30;;;;;;;12.98;6.07;;;;;;;-0.05;100.00;98990.03;4970160;28;20056;-75
2023/03/10 01:13:57;;;;;;;13.27;6.78;;;;;;;-0.05;100.00;98990.03;4954651;28;20041;-75
2023/03/10 01:16:33;;;;;;;17.00;6.80;;;;;;;-0.04;100.00;98981.34;4960166;28;20034;-75
2023/03/10 01:18:59;;;;;;;14.85;6.40;;;;;;;-0.02;100.00;98984.72;4974242;28;20523;-75
2023/03/10 01:21:27;;;;;;;15.57;6.57;;;;;;;-0.01;100.00;98981.22;4972711;28;20037;-75
2023/03/10 01:23:53;;;;;;;14.60;6.95;;;;;;;-0.03;100.00;98981.28;4989674;28;20045;-76
2023/03/10 01:26:19;;;;;;;14.35;7.20;;;;;;;-0.02;100.00;98976.94;4973397;28;20045;-75
2023/03/10 01:28:45;;;;;;;13.68;6.45;;;;;;;-0.02;100.00;98974.31;4989669;28;20515;-75
2023/03/10 01:31:11;;;;;;;16.55;7.43;;;;;;;-0.01;100.00;98989.03;4969123;28;20034;-75
2023/03/10 01:33:41;;;;;;;17.17;7.82;;;;;;;-0.03;100.00;98983.03;4965722;28;20057;-75
2023/03/10 01:36:08;;;;;;;13.52;6.03;;;;;;;-0.02;100.00;98985.59;4989629;28;20049;-75
2023/03/10 01:38:35;;;;;;;16.83;6.80;;;;;;;0.00;100.00;98972.53;4990488;28;21586;-74
2023/03/10 01:41:00;;;;;;;17.20;6.65;;;;;;;0.00;100.00;98969.94;4969020;28;21960;-77
2023/03/10 01:43:29;;;;;;;14.82;7.05;;;;;;;-0.02;100.00;98963.91;4966389;28;20049;-78
2023/03/10 01:46:00;;;;;;;18.60;8.00;;;;;;;-0.04;100.00;98966.56;4989185;28;20528;-75
2023/03/10 01:48:27;;;;;;;18.40;8.35;;;;;;;-0.05;100.00;98969.22;4977939;28;20149;-75
2023/03/10 01:50:54;;;;;;;20.40;8.85;;;;;;;-0.04;100.00;98960.53;4974659;28;20049;-75
2023/03/10 01:53:21;;;;;;;19.73;8.60;;;;;;;-0.05;100.00;98961.41;4968740;28;20046;-75
2023/03/10 01:55:51;;;;;;;19.50;8.77;;;;;;;-0.07;100.00;98956.25;4944816;28;20046;-75
2023/03/10 01:58:26;;;;;;;21.80;10.02;;;;;;;-0.10;100.00;98952.91;4971763;28;20052;-76
2023/03/10 02:00:53;;;;;;;20.10;9.45;;;;;;;-0.12;100.00;98949.50;4957781;28;20097;-75
2023/03/10 02:03:26;;;;;;;20.88;9.00;;;;;;;-0.13;100.00;98947.81;4987058;28;20042;-75
2023/03/10 02:05:57;;;;;;;19.38;8.95;;;;;;;-0.15;100.00;98940.88;4988081;28;20159;-75
2023/03/10 02:08:24;;;;;;;17.08;8.07;;;;;;;-0.15;100.00;98945.25;4987513;28;20053;-75
2023/03/10 02:10:50;;;;;;;14.90;7.15;;;;;;;-0.13;100.00;98942.63;4959832;28;20500;-75
2023/03/10 02:13:15;;;;;;;13.10;6.15;;;;;;;-0.11;100.00;98938.19;4986700;28;20041;-76
2023/03/10 02:15:41;;;;;;;15.65;7.45;;;;;;;-0.11;100.00;98935.59;4965753;28;20046;-76
2023/03/10 02:18:09;;;;;;;14.85;6.82;;;;;;;-0.09;100.00;98925.97;4975280;28;20646;-75
2023/03/10 02:20:44;;;;;;;17.13;7.05;;;;;;;-0.10;100.00;98927.75;4972510;28;20390;-75
2023/03/10 02:23:14;;;;;;;14.38;7.07;;;;;;;-0.10;100.00;98934.69;4961386;28;20045;-75
2023/03/10 02:25:47;;;;;;;15.18;7.28;;;;;;;-0.11;100.00;98933.00;4990011;28;20159;-75
2023/03/10 02:28:13;;;;;;;14.23;6.90;;;;;;;-0.13;100.00;98932.22;4972747;28;20053;-75
2023/03/10 02:30:42;;;;;;;12.18;6.43;;;;;;;-0.15;100.00;98933.06;4964547;28;20744;-75
2023/03/10 02:33:15;;;;;;;14.82;6.97;;;;;;;-0.15;100.00;98927.88;4977019;28;20037;-75
2023/03/10 02:35:44;;;;;;;14.43;6.68;;;;;;;-0.15;100.00;98929.66;4976088;28;20562;-74
2023/03/10 02:38:09;;;;;;;15.45;6.53;;;;;;;-0.18;100.00;98933.19;4982267;28;20132;-75
2023/03/10 02:40:46;;;;;;;14.60;6.65;;;;;;;-0.19;100.00;98926.28;4973982;28;20815;-75
2023/03/10 02:43:11;;;;;;;13.10;5.95;;;;;;;-0.18;100.00;98930.59;4988634;28;20049;-75
2023/03/10 02:45:38;;;;;;;17.38;7.07;;;;;;;-0.21;100.00;98922.88;4975569;28;20045;-76
2023/03/10 02:48:04;;;;;;;13.65;5.70;;;;;;;-0.22;100.00;98915.97;4959518;28;20053;-76
2023/03/10 02:50:34;;;;;;;13.27;6.47;;;;;;;-0.23;100.00;98916.88;4957658;28;20080;-76
2023/03/10 02:53:11;;;;;;;11.68;5.97;;;;;;;-0.23;100.00;98929.88;4967691;28;20049;-76
2023/03/10 02:55:36;;;;;;;14.60;6.25;;;;;;;-0.24;100.00;98916.91;4974701;28;20382;-76
2023/03/10 02:58:02;;;;;;;14.25;6.60;;;;;;;-0.26;100.00;98911.78;4988075;28;20096;-76
2023/03/10 03:00:29;;;;;;;13.80;6.30;;;;;;;-0.27;100.00;98912.69;4967923;28;20088;-76
2023/03/10 03:02:54;;;;;;;12.73;6.07;;;;;;;-0.29;100.00;98912.72;4972534;28;20453;-76
2023/03/10 03:05:20;;;;;;;17.23;6.85;;;;;;;-0.29;100.00;98911.88;4989544;28;20041;-75
2023/03/10 03:07:45;;;;;;;13.63;6.63;;;;;;;-0.29;100.00;98911.88;4972652;28;20057;-75
2023/03/10 03:10:11;;;;;;;12.57;6.03;;;;;;;-0.31;100.00;98911.06;4987997;28;20061;-75
2023/03/10 03:12:37;;;;;;;15.73;6.93;;;;;;;-0.32;100.00;98906.78;4988326;28;20049;-75
2023/03/10 03:15:03;;;;;;;12.82;6.05;;;;;;;-0.31;100.00;98913.66;4956898;28;20041;-75
2023/03/10 03:17:29;;;;;;;14.68;6.90;;;;;;;-0.31;100.00;98917.13;4981121;28;20500;-75
2023/03/10 03:19:55;;;;;;;13.77;5.63;;;;;;;-0.33;100.00;98907.66;4987147;28;20319;-75
2023/03/10 03:22:21;;;;;;;13.02;6.53;;;;;;;-0.33;100.00;98907.66;4980737;28;20050;-75
2023/03/10 03:24:46;;;;;;;15.73;6.43;;;;;;;-0.33;100.00;98905.91;4953658;28;20392;-75
2023/03/10 03:27:12;;;;;;;14.50;6.30;;;;;;;-0.35;100.00;98905.13;4988447;28;20045;-75
2023/03/10 03:29:37;;;;;;;11.95;5.50;;;;;;;-0.34;100.00;98904.22;4987346;28;20050;-75
2023/03/10 03:32:03;;;;;;;12.48;6.18;;;;;;;-0.34;100.00;98899.00;4986605;28;20313;-75
2023/03/10 03:34:29;;;;;;;13.70;6.65;;;;;;;-0.33;100.00;98892.91;4974301;28;20048;-75
2023/03/10 03:36:54;;;;;;;14.65;6.55;;;;;;;-0.31;100.00;98885.91;4966685;28;20428;-76
2023/03/10 03:39:20;;;;;;;13.77;6.22;;;;;;;-0.30;100.00;98891.97;4987211;28;20715;-75
2023/03/10 03:41:47;;;;;;;16.08;7.22;;;;;;;-0.29;100.00;98888.44;4970467;28;20049;-76
2023/03/10 03:44:12;;;;;;;12.98;6.70;;;;;;;-0.29;100.00;98893.66;4987389;28;20578;-76
2023/03/10 03:46:44;;;;;;;15.95;6.25;;;;;;;-0.30;100.00;98885.03;4968023;28;20745;-75
2023/03/10 03:49:10;;;;;;;14.85;6.78;;;;;;;-0.31;100.00;98888.53;4971517;28;20092;-76
2023/03/10 03:51:36;;;;;;;13.35;6.50;;;;;;;-0.31;100.00;98890.25;4985793;28;20177;-75
2023/03/10 03:54:02;;;;;;;13.77;6.25;;;;;;;-0.33;100.00;98887.69;4978070;28;20566;-76
2023/03/10 03:56:27;;;;;;;13.38;6.35;;;;;;;-0.33;100.00;98889.47;4948339;28;20038;-75
2023/03/10 03:58:53;;;;;;;13.95;6.63;;;;;;;-0.33;100.00;98897.28;4991897;28;21272;-75
2023/03/10 04:01:18;;;;;;;14.90;6.72;;;;;;;-0.33;100.00;98892.06;4970660;28;20123;-75
2023/03/10 04:03:44;;;;;;;16.20;6.60;;;;;;;-0.34;100.00;98887.75;4989554;28;20675;-76
2023/03/10 04:06:10;;;;;;;16.05;7.72;;;;;;;-0.35;100.00;98888.66;4960277;28;20045;-76
2023/03/10 04:08:35;;;;;;;14.77;7.05;;;;;;;-0.34;100.00;98886.00;4960345;28;20085;-75
2023/03/10 04:11:01;;;;;;;17.55;7.65;;;;;;;-0.34;100.00;98883.41;4970528;28;20069;-75
2023/03/10 04:13:26;;;;;;;16.83;7.97;;;;;;;-0.35;100.00;98875.66;4970645;28;20054;-75
2023/03/10 04:15:59;;;;;;;18.77;7.75;;;;;;;-0.34;100.00;98879.94;4972329;28;20058;-75
2023/03/10 04:18:25;;;;;;;13.73;5.70;;;;;;;-0.37;100.00;98877.44;4972767;28;20442;-76
2023/03/10 04:20:50;;;;;;;14.77;7.50;;;;;;;-0.40;100.00;98877.56;4975242;28;20296;-76
2023/03/10 04:23:16;;;;;;;15.00;7.10;;;;;;;-0.46;100.00;98879.44;4977122;28;20057;-76
2023/03/10 04:25:42;;;;;;;19.45;8.68;;;;;;;-0.50;100.00;98879.59;4978196;28;20128;-76
2023/03/10 04:28:09;;;;;;;16.48;7.45;;;;;;;-0.56;100.00;98875.44;4976075;28;20099;-76
2023/03/10 04:30:35;;;;;;;16.77;6.70;;;;;;;-0.60;100.00;98881.63;4988433;28;20099;-76
2023/03/10 04:33:01;;;;;;;17.38;8.27;;;;;;;-0.63;100.00;98877.38;4989233;28;20049;-76
2023/03/10 04:35:27;;;;;;;18.98;7.82;;;;;;;-0.65;100.00;98886.94;4974446;28;20045;-76
2023/03/10 04:37:53;;;;;;;17.80;8.60;;;;;;;-0.67;100.00;98882.72;4987605;28;20742;-76
2023/03/10 04:40:18;;;;;;;18.70;8.25;;;;;;;-0.69;100.00;98877.56;4961269;28;20100;-76
2023/03/10 04:42:44;;;;;;;18.13;7.88;;;;;;;-0.69;100.00;98875.78;4982503;28;20041;-76
2023/03/10 04:45:10;;;;;;;19.38;7.90;;;;;;;-0.70;100.00;98874.09;4976358;28;20057;-76
2023/03/10 04:47:36;;;;;;;19.73;7.63;;;;;;;-0.71;100.00;98867.19;4993572;28;20485;-76
2023/03/10 04:50:03;;;;;;;16.60;7.60;;;;;;;-0.73;100.00;98860.34;4975798;28;20132;-76
2023/03/10 04:52:31;;;;;;;19.83;8.32;;;;;;;-0.76;100.00;98848.28;4961095;28;20058;-76
2023/03/10 04:54:57;;;;;;;17.83;7.38;;;;;;;-0.77;100.00;98863.97;4993404;28;20068;-76
2023/03/10 04:57:23;;;;;;;19.17;8.52;;;;;;;-0.80;100.00;98862.31;4995051;28;20099;-77
2023/03/10 04:59:50;;;;;;;19.73;8.75;;;;;;;-0.83;100.00;98863.25;4981446;28;20107;-77
2023/03/10 05:02:15;;;;;;;17.55;8.02;;;;;;;-0.84;100.00;98871.94;4989887;28;20057;-77
2023/03/10 05:04:41;;;;;;;20.75;8.90;;;;;;;-0.84;100.00;98865.88;4974907;28;20053;-77
2023/03/10 05:07:07;;;;;;;20.90;8.40;;;;;;;-0.84;100.00;98861.53;4994369;28;20053;-78
2023/03/10 05:09:36;;;;;;;21.25;8.82;;;;;;;-0.84;100.00;98855.47;4964474;28;20049;-77
2023/03/10 05:12:03;;;;;;;17.85;8.10;;;;;;;-0.85;100.00;98852.06;4957333;28;20397;-77
2023/03/10 05:14:28;;;;;;;18.48;8.23;;;;;;;-0.85;100.00;98848.59;4973693;28;20041;-77
2023/03/10 05:16:54;;;;;;;16.50;7.60;;;;;;;-0.83;100.00;98849.38;4973031;28;21068;-77
2023/03/10 05:19:19;;;;;;;15.10;7.10;;;;;;;-0.83;100.00;98847.66;4985668;28;20131;-77
2023/03/10 05:21:48;;;;;;;17.88;7.38;;;;;;;-0.83;100.00;98841.59;4956088;28;20504;-78
2023/03/10 05:24:13;;;;;;;23.58;9.48;;;;;;;-0.84;100.00;98850.28;4984784;28;20194;-77
2023/03/10 05:26:40;;;;;;;21.38;9.50;;;;;;;-0.84;100.00;98848.56;4972377;28;20658;-78
2023/03/10 05:29:06;;;;;;;23.75;9.05;;;;;;;-0.84;100.00;98860.69;4984735;28;20096;-77
2023/03/10 05:31:31;;;;;;;22.83;9.35;;;;;;;-0.84;100.00;98860.69;4987144;28;20040;-77
2023/03/10 05:33:57;;;;;;;19.83;9.05;;;;;;;-0.86;100.00;98857.28;4973403;28;20054;-77
2023/03/10 05:36:23;;;;;;;23.33;8.93;;;;;;;-0.88;100.00;98856.50;4988702;28;20057;-77
2023/03/10 05:38:49;;;;;;;25.15;10.27;;;;;;;-0.88;100.00;98869.47;4958792;28;20074;-77
2023/03/10 05:41:14;;;;;;;27.83;10.52;;;;;;;-0.89;100.00;98872.94;4969505;28;20567;-77
2023/03/10 05:43:40;;;;;;;27.27;10.93;;;;;;;-0.91;100.00;98875.63;4956106;28;20191;-78
2023/03/10 05:46:07;;;;;;;26.77;11.27;;;;;;;-0.91;100.00;98888.63;4959093;28;20045;-77
2023/03/10 05:48:33;;;;;;;31.00;12.00;;;;;;;-0.91;100.00;98885.16;4974162;28;20114;-77
2023/03/10 05:51:04;;;;;;;25.52;10.70;;;;;;;-0.91;100.00;98888.63;4969371;28;21329;-77
2023/03/10 05:53:31;;;;;;;28.60;11.00;;;;;;;-0.90;100.00;98894.63;4961741;28;20041;-78
2023/03/10 05:55:57;;;;;;;30.75;11.70;;;;;;;-0.91;100.00;98890.34;4953513;28;20092;-77
2023/03/10 05:58:24;;;;;;;30.02;12.18;;;;;;;-0.90;100.00;98897.25;4971360;28;20935;-77
2023/03/10 06:00:50;;;;;;;28.02;10.93;;;;;;;-0.89;100.00;98883.34;4960860;28;20784;-77
2023/03/10 06:03:16;;;;;;;30.10;10.95;;;;;;;-0.89;100.00;98883.34;4977713;28;20061;-77
2023/03/10 06:05:41;;;;;;;28.90;11.45;;;;;;;-0.89;100.00;98884.22;4969956;28;20523;-77
2023/03/10 06:08:07;;;;;;;27.90;10.25;;;;;;;-0.89;100.00;98881.59;4970165;28;22024;-77
2023/03/10 06:10:33;;;;;;;31.52;11.02;;;;;;;-0.90;100.00;98882.50;4973372;28;20037;-77
2023/03/10 06:12:58;;;;;;;36.38;12.52;;;;;;;-0.88;100.00;98883.31;4972187;28;20103;-77
2023/03/10 06:15:24;;;;;;;32.20;11.82;;;;;;;-0.88;100.00;98893.69;4953076;28;20041;-77
2023/03/10 06:17:49;;;;;;;35.30;12.23;;;;;;;-0.87;100.00;98898.00;4974524;28;20034;-77
2023/03/10 06:20:15;;;;;;;32.15;12.23;;;;;;;-0.86;100.00;98893.66;4974930;28;20058;-77
2023/03/10 06:22:40;;;;;;;27.75;11.07;;;;;;;-0.88;100.00;98901.50;4963767;28;20050;-77
2023/03/10 06:25:07;;;;;;;31.90;11.15;;;;;;;-0.87;100.00;98897.16;4980132;28;20093;-77
2023/03/10 06:27:33;;;;;;;26.90;10.60;;;;;;;-0.85;100.00;98903.16;4959545;28;20042;-77
2023/03/10 06:29:59;;;;;;;31.30;11.40;;;;;;;-0.83;100.00;98894.44;4975273;28;20030;-77
2023/03/10 06:32:25;;;;;;;32.10;11.15;;;;;;;-0.81;100.00;98891.78;4991907;28;20080;-77
2023/03/10 06:34:50;;;;;;;28.38;10.95;;;;;;;-0.81;100.00;98891.78;4981267;28;20184;-77
2023/03/10 06:37:16;;;;;;;36.25;10.77;;;;;;;-0.80;100.00;98893.50;4972314;28;20158;-77
2023/03/10 06:39:41;;;;;;;24.70;9.80;;;;;;;-0.77;100.00;98887.34;4956357;28;20453;-77
2023/03/10 06:42:08;;;;;;;24.45;9.20;;;;;;;-0.77;100.00;98877.78;4989743;28;20433;-77
2023/03/10 06:44:34;;;;;;;25.65;9.85;;;;;;;-0.76;100.00;98883.84;4974441;28;20171;-77
2023/03/10 06:47:03;;;;;;;24.90;10.05;;;;;;;-0.76;100.00;98876.88;4959939;28;20033;-77
2023/03/10 06:49:31;;;;;;;22.38;9.00;;;;;;;-0.74;100.00;98877.72;4957739;28;20136;-76
2023/03/10 06:51:57;;;;;;;19.38;8.35;;;;;;;-0.74;100.00;98882.03;4990266;28;20040;-77
2023/03/10 06:54:23;;;;;;;26.40;9.65;;;;;;;-0.72;100.00;98885.44;4970726;28;20233;-76
2023/03/10 06:56:49;;;;;;;22.98;9.00;;;;;;;-0.72;100.00;98888.91;4979566;28;20116;-77
2023/03/10 06:59:14;;;;;;;20.00;8.18;;;;;;;-0.71;100.00;98890.59;4971669;28;20044;-77
2023/03/10 07:01:40;;;;;;;23.40;8.85;;;;;;;-0.72;100.00;98894.09;4984782;28;20105;-76
2023/03/10 07:04:06;;;;;;;18.80;7.35;;;;;;;-0.71;100.00;98890.59;4963670;28;20038;-76
2023/03/10 07:06:31;;;;;;;20.50;8.77;;;;;;;-0.68;100.00;98881.84;4983131;28;20104;-76
2023/03/10 07:08:57;;;;;;;21.67;9.15;;;;;;;-0.66;100.00;98892.22;4968789;28;20051;-76
2023/03/10 07:11:24;;;;;;;20.27;8.95;;;;;;;-0.65;100.00;98896.50;4965424;28;20049;-76
2023/03/10 07:13:49;;;;;;;19.80;6.95;;;;;;;-0.63;100.00;98890.38;4987583;28;20118;-77
2023/03/10 07:16:15;;;;;;;21.48;8.15;;;;;;;-0.62;100.00;98901.59;4939270;28;20055;-75
2023/03/10 07:18:41;;;;;;;22.33;8.43;;;;;;;-0.62;100.00;98907.66;4968413;28;20413;-72
2023/03/10 07:21:08;;;;;;;19.90;8.15;;;;;;;-0.61;100.00;98909.38;4982421;28;20576;-74
2023/03/10 07:23:34;;;;;;;21.92;9.48;;;;;;;-0.61;100.00;98924.13;4985032;28;20076;-74
2023/03/10 07:25:59;;;;;;;22.98;8.57;;;;;;;-0.62;100.00;98922.41;4985835;28;20057;-74
2023/03/10 07:28:26;;;;;;;17.83;7.70;;;;;;;-0.62;100.00;98931.06;4977524;28;20077;-74
2023/03/10 07:30:53;;;;;;;17.48;7.53;;;;;;;-0.61;100.00;98939.72;4967704;28;20184;-74
2023/03/10 07:33:19;;;;;;;21.10;8.60;;;;;;;-0.62;100.00;98940.59;4989338;28;20076;-74
2023/03/10 07:35:44;;;;;;;24.73;9.27;;;;;;;-0.63;100.00;98947.56;4975605;28;20353;-74
2023/03/10 07:38:10;;;;;;;22.98;9.20;;;;;;;-0.62;100.00;98936.25;4969220;28;20100;-75
2023/03/10 07:40:38;;;;;;;20.30;7.97;;;;;;;-0.61;100.00;98932.75;4973221;28;20060;-73
2023/03/10 07:43:04;;;;;;;23.15;9.50;;;;;;;-0.60;100.00;98926.66;4978527;28;20730;-73
2023/03/10 07:45:31;;;;;;;21.55;8.98;;;;;;;-0.58;100.00;98931.81;4992949;28;20128;-74
2023/03/10 07:47:57;;;;;;;26.80;10.00;;;;;;;-0.57;100.00;98936.13;4975252;28;20054;-74
2023/03/10 07:50:23;;;;;;;18.98;8.15;;;;;;;-0.56;100.00;98937.81;4989427;28;20068;-74
2023/03/10 07:52:49;;;;;;;21.30;8.20;;;;;;;-0.55;100.00;98929.97;4988938;28;20068;-73
2023/03/10 07:55:15;;;;;;;20.35;8.50;;;;;;;-0.55;100.00;98944.72;4988870;28;21165;-73
2023/03/10 07:57:41;;;;;;;21.70;8.27;;;;;;;-0.55;100.00;98945.56;4986269;28;20058;-73
2023/03/10 08:00:07;;;;;;;20.05;8.20;;;;;;;-0.53;100.00;98948.16;4989630;28;20080;-73
2023/03/10 08:02:33;;;;;;;19.70;8.65;;;;;;;-0.55;100.00;98944.72;4971343;28;20060;-73
2023/03/10 08:04:58;;;;;;;21.20;8.20;;;;;;;-0.52;100.00;98949.84;4979436;28;20626;-73
2023/03/10 08:07:26;;;;;;;16.63;8.77;;;;;;;-0.52;100.00;98951.56;4993364;28;20519;-74
2023/03/10 08:09:52;;;;;;;19.55;9.45;;;;;;;-0.53;100.00;98955.94;4991752;28;20085;-73
2023/03/10 08:12:19;;;;;;;18.75;8.45;;;;;;;-0.52;100.00;98954.19;4991187;28;20125;-74
2023/03/10 08:14:45;;;;;;;19.23;8.30;;;;;;;-0.52;100.00;98965.44;4990964;28;20144;-74
2023/03/10 08:17:11;;;;;;;20.88;8.52;;;;;;;-0.51;100.00;98971.47;4991396;28;20074;-74
2023/03/10 08:19:37;;;;;;;17.60;7.53;;;;;;;-0.51;100.00;98969.72;4975762;28;20503;-74
2023/03/10 08:22:03;;;;;;;18.08;7.72;;;;;;;-0.50;100.00;98973.19;4975926;28;21009;-74
2023/03/10 08:24:29;;;;;;;17.58;7.63;;;;;;;-0.49;100.00;98973.13;4971066;28;20077;-74
2023/03/10 08:26:55;;;;;;;20.92;7.53;;;;;;;-0.48;100.00;98976.59;4941520;28;20052;-74
2023/03/10 08:29:21;;;;;;;15.32;7.13;;;;;;;-0.47;100.00;98979.16;4974867;28;20038;-73
2023/03/10 08:31:47;;;;;;;16.75;7.90;;;;;;;-0.48;100.00;98977.44;4989273;28;20447;-74
2023/03/10 08:34:13;;;;;;;20.92;8.55;;;;;;;-0.49;100.00;98978.34;4987183;28;20100;-73
2023/03/10 08:36:39;;;;;;;17.92;7.28;;;;;;;-0.46;100.00;98980.00;4987857;28;20050;-74
2023/03/10 08:39:06;;;;;;;19.92;8.05;;;;;;;-0.45;100.00;98976.50;4950332;28;20039;-74
2023/03/10 08:41:35;;;;;;;21.35;8.75;;;;;;;-0.45;100.00;98976.50;4974510;28;20052;-74
2023/03/10 08:44:01;;;;;;;21.35;8.60;;;;;;;-0.45;100.00;98981.69;4972687;28;20037;-73
2023/03/10 08:46:29;;;;;;;22.50;8.43;;;;;;;-0.47;100.00;98991.28;4984567;28;20057;-73
2023/03/10 08:48:55;;;;;;;20.70;8.98;;;;;;;-0.46;100.00;98990.41;4972567;28;20405;-74
2023/03/10 08:51:21;;;;;;;19.63;7.75;;;;;;;-0.45;100.00;98999.91;4961677;28;20060;-74
2023/03/10 08:53:47;;;;;;;22.80;9.70;;;;;;;-0.45;100.00;98995.56;4982339;28;20785;-75
2023/03/10 08:56:13;;;;;;;27.30;9.18;;;;;;;-0.43;100.00;98996.34;4977066;28;20040;-75
2023/03/10 08:58:39;;;;;;;20.33;8.55;;;;;;;-0.40;100.00;99015.38;4991957;28;20030;-75
2023/03/10 09:01:05;;;;;;;19.83;7.95;;;;;;;-0.41;100.00;99011.91;4973298;28;20100;-75
2023/03/10 09:03:30;;;;;;;19.65;8.68;;;;;;;-0.42;100.00;99003.25;4977097;28;20072;-75
2023/03/10 09:05:56;;;;;;;20.40;9.30;;;;;;;-0.40;100.00;99007.59;4972438;28;20654;-75
2023/03/10 09:08:22;;;;;;;17.95;8.70;;;;;;;-0.43;100.00;99009.34;4960169;28;20052;-76
2023/03/10 09:10:48;;;;;;;21.27;9.00;;;;;;;-0.42;100.00;99013.66;4973762;28;20617;-76
2023/03/10 09:13:14;;;;;;;20.75;8.77;;;;;;;-0.39;100.00;99011.88;4989283;28;20061;-75
2023/03/10 09:15:40;;;;;;;23.77;9.23;;;;;;;-0.40;100.00;99008.41;4991844;28;20112;-75
2023/03/10 09:18:07;;;;;;;22.52;9.77;;;;;;;-0.38;100.00;99016.19;4976688;28;20434;-75
2023/03/10 09:20:33;;;;;;;22.52;9.10;;;;;;;-0.39;100.00;99019.69;4979694;28;21575;-76
2023/03/10 09:22:59;;;;;;;17.45;8.15;;;;;;;-0.40;100.00;99021.41;4986805;28;20092;-75
2023/03/10 09:25:25;;;;;;;18.85;7.35;;;;;;;-0.40;100.00;99026.63;4991349;28;20065;-75
2023/03/10 09:27:50;;;;;;;21.67;8.98;;;;;;;-0.40;100.00;99028.38;4982991;28;20116;-75
2023/03/10 09:30:16;;;;;;;21.08;8.60;;;;;;;-0.41;100.00;99024.94;4988809;28;20073;-76
2023/03/10 09:32:44;;;;;;;20.77;8.77;;;;;;;-0.39;100.00;99032.69;4975947;28;20049;-75
2023/03/10 09:35:10;;;;;;;20.73;8.18;;;;;;;-0.36;100.00;99032.59;4993555;28;20061;-76
2023/03/10 09:37:36;;;;;;;20.60;8.38;;;;;;;-0.36;100.00;99035.19;4991500;28;20081;-75
2023/03/10 09:40:04;;;;;;;19.80;8.40;;;;;;;-0.36;100.00;99041.25;4984546;28;20489;-75
2023/03/10 09:42:42;;;;;;;17.10;8.07;;;;;;;-0.36;100.00;99048.19;4956208;28;20049;-75
2023/03/10 09:45:29;;;;;;;21.17;8.82;;;;;;;-0.38;100.00;99055.19;4990790;28;20137;-75
2023/03/10 09:47:57;;;;;;;21.45;9.00;;;;;;;-0.39;100.00;99053.50;4981267;28;20034;-75
2023/03/10 09:50:38;;;;;;;18.90;8.35;;;;;;;-0.42;100.00;99055.25;4991911;28;20050;-75
2023/03/10 09:53:24;;;;;;;19.27;8.52;;;;;;;-0.44;100.00;99044.06;4977618;28;20061;-75
2023/03/10 09:55:49;;;;;;;17.05;7.57;;;;;;;-0.45;100.00;99042.38;4971794;28;20049;-75
2023/03/10 09:58:30;;;;;;;17.27;7.60;;;;;;;-0.41;100.00;99043.13;4984922;28;20034;-75
2023/03/10 10:00:57;;;;;;;16.63;7.60;;;;;;;-0.45;100.00;99033.69;4990671;28;20042;-74
2023/03/10 10:03:45;;;;;;;17.88;7.55;;;;;;;-0.46;100.00;99043.25;4988412;28;20045;-74
2023/03/10 10:06:17;;;;;;;15.75;7.60;;;;;;;-0.43;100.00;99050.13;4972126;28;20524;-74
2023/03/10 10:08:51;;;;;;;16.40;7.13;;;;;;;-0.43;100.00;99057.94;4972788;28;20034;-74
2023/03/10 10:11:17;;;;;;;13.38;6.57;;;;;;;-0.44;100.00;99067.47;4970501;28;20419;-74
2023/03/10 10:13:43;;;;;;;16.58;6.70;;;;;;;-0.47;100.00;99067.56;4988230;28;20046;-75
2023/03/10 10:16:30;;;;;;;17.58;6.65;;;;;;;-0.49;100.00;99069.34;4984977;28;20045;-75
2023/03/10 10:19:06;;;;;;;19.42;7.28;;;;;;;-0.52;100.00;99074.63;4967526;28;20132;-74
2023/03/10 10:21:54;;;;;;;18.88;8.38;;;;;;;-0.53;100.00;99082.47;4983208;28;20100;-75
2023/03/10 10:24:22;;;;;;;19.30;8.80;;;;;;;-0.54;100.00;99071.25;4976577;28;20293;-75
2023/03/10 10:26:48;;;;;;;22.42;9.52;;;;;;;-0.54;100.00;99081.63;4934651;28;20058;-75
2023/03/10 10:29:24;;;;;;;20.17;8.00;;;;;;;-0.54;100.00;99081.63;4953605;28;21274;-76
2023/03/10 10:32:04;;;;;;;20.17;9.10;;;;;;;-0.55;100.00;99083.38;4969679;28;20672;-74
2023/03/10 10:34:31;;;;;;;18.52;8.23;;;;;;;-0.52;100.00;99090.25;4977065;28;20060;-75
2023/03/10 10:37:00;;;;;;;21.20;8.95;;;;;;;-0.50;100.00;99098.00;4950962;28;20510;-75
2023/03/10 10:39:31;;;;;;;24.05;9.82;;;;;;;-0.50;100.00;99098.84;4962015;28;21893;-75
2023/03/10 10:42:23;;;;;;;20.50;7.47;;;;;;;-0.49;100.00;99105.75;4958312;28;20720;-75
2023/03/10 10:45:01;;;;;;;21.75;8.55;;;;;;;-0.51;100.00;99112.75;4936411;28;20085;-75
2023/03/10 10:47:48;;;;;;;17.52;8.80;;;;;;;-0.49;100.00;99108.34;4982580;28;20116;-74
2023/03/10 10:50:25;;;;;;;19.60;8.30;;;;;;;-0.45;100.00;99107.38;4978861;28;20046;-75
2023/03/10 10:53:15;;;;;;;21.27;9.23;;;;;;;-0.43;100.00;99100.38;4982697;28;20045;-74
2023/03/10 10:55:43;;;;;;;21.25;9.15;;;;;;;-0.38;100.00;99115.00;4952879;28;20038;-76
2023/03/10 10:58:27;;;;;;;19.98;7.63;;;;;;;-0.36;100.00;99113.19;4979992;28;20065;-75
2023/03/10 11:00:55;;;;;;;23.90;9.30;;;;;;;-0.33;100.00;99102.72;4983618;28;20283;-74
2023/03/10 11:03:33;;;;;;;23.13;9.60;;;;;;;-0.29;100.00;99097.41;4965125;28;20057;-75
2023/03/10 11:05:59;;;;;;;25.27;9.82;;;;;;;-0.30;100.00;99094.81;4943240;28;20530;-75
2023/03/10 11:08:25;;;;;;;22.67;10.35;;;;;;;-0.27;100.00;99097.34;4982191;28;20101;-76
2023/03/10 11:11:00;;;;;;;24.00;11.00;;;;;;;-0.26;100.00;99088.66;4981299;28;20050;-75
2023/03/10 11:13:48;;;;;;;26.35;11.35;;;;;;;-0.23;100.00;99090.31;4951541;28;20042;-77
2023/03/10 11:16:25;;;;;;;21.63;10.20;;;;;;;-0.23;100.00;99080.75;4978193;28;20177;-76
2023/03/10 11:19:17;;;;;;;26.10;11.05;;;;;;;-0.18;100.00;99089.28;4964520;28;20386;-76